sensor_id;sensor_type;location;lat;lon;timestamp;P1;durP1;ratioP1;P2;durP2;ratioP2
33505;SDS011;19843;51.040;13.782;2023-04-29T00:00:56;22.23;;;18.38;;
33505;SDS011;19843;51.040;13.782;2023-04-29T00:03:23;21.90;;;17.73;;
33505;SDS011;19843;51.040;13.782;2023-04-29T00:05:54;19.85;;;17.75;;
33505;SDS011;19843;51.040;13.782;2023-04-29T00:08:22;20.25;;;17.80;;
33505;SDS011;19843;51.040;13.782;2023-04-29T00:10:50;21.33;;;18.38;;
33505;SDS011;19843;51.040;13.782;2023-04-29T00:13:17;19.88;;;17.73;;
33505;SDS011;19843;51.040;13.782;2023-04-29T00:15:44;24.45;;;18.10;;
33505;SDS011;19843;51.040;13.782;2023-04-29T00:18:13;22.30;;;18.83;;
33505;SDS011;19843;51.040;13.782;2023-04-29T00:20:41;21.88;;;18.05;;
33505;SDS011;19843;51.040;13.782;2023-04-29T00:23:08;20.80;;;18.45;;
33505;SDS011;19843;51.040;13.782;2023-04-29T00:25:36;20.88;;;18.70;;
33505;SDS011;19843;51.040;13.782;2023-04-29T00:28:04;23.20;;;18.58;;
33505;SDS011;19843;51.040;13.782;2023-04-29T00:30:31;22.35;;;18.88;;
33505;SDS011;19843;51.040;13.782;2023-04-29T00:33:00;21.55;;;19.45;;
33505;SDS011;19843;51.040;13.782;2023-04-29T00:35:29;25.63;;;19.17;;
33505;SDS011;19843;51.040;13.782;2023-04-29T00:37:56;22.38;;;19.58;;
33505;SDS011;19843;51.040;13.782;2023-04-29T00:40:24;23.67;;;19.15;;
33505;SDS011;19843;51.040;13.782;2023-04-29T00:42:51;22.80;;;20.10;;
33505;SDS011;19843;51.040;13.782;2023-04-29T00:45:19;22.65;;;20.02;;
33505;SDS011;19843;51.040;13.782;2023-04-29T00:47:46;22.05;;;19.35;;
33505;SDS011;19843;51.040;13.782;2023-04-29T00:50:13;21.05;;;18.65;;
33505;SDS011;19843;51.040;13.782;2023-04-29T00:52:42;23.80;;;19.77;;
33505;SDS011;19843;51.040;13.782;2023-04-29T00:55:10;22.23;;;19.33;;
33505;SDS011;19843;51.040;13.782;2023-04-29T00:57:39;21.35;;;19.08;;
33505;SDS011;19843;51.040;13.782;2023-04-29T01:00:08;27.38;;;20.98;;
33505;SDS011;19843;51.040;13.782;2023-04-29T01:02:36;25.85;;;20.58;;
33505;SDS011;19843;51.040;13.782;2023-04-29T01:05:04;21.88;;;19.58;;
33505;SDS011;19843;51.040;13.782;2023-04-29T01:07:33;22.92;;;20.42;;
33505;SDS011;19843;51.040;13.782;2023-04-29T01:10:12;22.40;;;19.80;;
33505;SDS011;19843;51.040;13.782;2023-04-29T01:12:43;23.58;;;19.35;;
33505;SDS011;19843;51.040;13.782;2023-04-29T01:15:16;21.67;;;19.33;;
33505;SDS011;19843;51.040;13.782;2023-04-29T01:17:49;24.85;;;20.15;;
33505;SDS011;19843;51.040;13.782;2023-04-29T01:20:26;26.65;;;20.30;;
33505;SDS011;19843;51.040;13.782;2023-04-29T01:22:55;25.95;;;21.90;;
33505;SDS011;19843;51.040;13.782;2023-04-29T01:25:24;26.20;;;21.27;;
33505;SDS011;19843;51.040;13.782;2023-04-29T01:27:54;26.45;;;19.20;;
33505;SDS011;19843;51.040;13.782;2023-04-29T01:30:30;23.08;;;20.58;;
33505;SDS011;19843;51.040;13.782;2023-04-29T01:33:05;23.48;;;19.70;;
33505;SDS011;19843;51.040;13.782;2023-04-29T01:35:43;25.70;;;19.98;;
33505;SDS011;19843;51.040;13.782;2023-04-29T01:38:22;28.45;;;20.85;;
33505;SDS011;19843;51.040;13.782;2023-04-29T01:41:00;25.10;;;20.65;;
33505;SDS011;19843;51.040;13.782;2023-04-29T01:43:36;23.52;;;20.88;;
33505;SDS011;19843;51.040;13.782;2023-04-29T01:46:05;27.02;;;22.13;;
33505;SDS011;19843;51.040;13.782;2023-04-29T01:48:36;28.77;;;22.20;;
33505;SDS011;19843;51.040;13.782;2023-04-29T01:51:03;29.52;;;22.88;;
33505;SDS011;19843;51.040;13.782;2023-04-29T01:53:32;26.17;;;22.67;;
33505;SDS011;19843;51.040;13.782;2023-04-29T01:56:01;27.90;;;23.35;;
33505;SDS011;19843;51.040;13.782;2023-04-29T01:58:28;26.83;;;21.80;;
33505;SDS011;19843;51.040;13.782;2023-04-29T02:00:55;26.88;;;22.65;;
33505;SDS011;19843;51.040;13.782;2023-04-29T02:03:23;27.88;;;24.30;;
33505;SDS011;19843;51.040;13.782;2023-04-29T02:05:51;27.88;;;23.35;;
33505;SDS011;19843;51.040;13.782;2023-04-29T02:08:18;29.55;;;24.15;;
33505;SDS011;19843;51.040;13.782;2023-04-29T02:10:52;31.27;;;24.95;;
33505;SDS011;19843;51.040;13.782;2023-04-29T02:13:21;31.00;;;24.30;;
33505;SDS011;19843;51.040;13.782;2023-04-29T02:15:49;26.33;;;22.60;;
33505;SDS011;19843;51.040;13.782;2023-04-29T02:18:19;28.95;;;22.75;;
33505;SDS011;19843;51.040;13.782;2023-04-29T02:20:47;30.70;;;23.58;;
33505;SDS011;19843;51.040;13.782;2023-04-29T02:23:16;30.95;;;24.95;;
33505;SDS011;19843;51.040;13.782;2023-04-29T02:25:44;29.83;;;25.58;;
33505;SDS011;19843;51.040;13.782;2023-04-29T02:28:11;29.27;;;24.60;;
33505;SDS011;19843;51.040;13.782;2023-04-29T02:30:40;35.40;;;25.75;;
33505;SDS011;19843;51.040;13.782;2023-04-29T02:33:07;32.90;;;24.83;;
33505;SDS011;19843;51.040;13.782;2023-04-29T02:35:35;33.05;;;24.88;;
33505;SDS011;19843;51.040;13.782;2023-04-29T02:38:02;30.25;;;24.80;;
33505;SDS011;19843;51.040;13.782;2023-04-29T02:40:30;29.83;;;24.58;;
33505;SDS011;19843;51.040;13.782;2023-04-29T02:42:58;28.80;;;22.70;;
33505;SDS011;19843;51.040;13.782;2023-04-29T02:45:26;31.00;;;22.83;;
33505;SDS011;19843;51.040;13.782;2023-04-29T02:47:55;30.20;;;23.00;;
33505;SDS011;19843;51.040;13.782;2023-04-29T02:50:22;30.08;;;24.70;;
33505;SDS011;19843;51.040;13.782;2023-04-29T02:52:51;32.28;;;24.05;;
33505;SDS011;19843;51.040;13.782;2023-04-29T02:55:18;32.80;;;22.23;;
33505;SDS011;19843;51.040;13.782;2023-04-29T02:57:46;27.75;;;22.80;;
33505;SDS011;19843;51.040;13.782;2023-04-29T03:00:13;30.75;;;23.20;;
33505;SDS011;19843;51.040;13.782;2023-04-29T03:02:41;27.23;;;22.33;;
33505;SDS011;19843;51.040;13.782;2023-04-29T03:05:10;28.88;;;21.92;;
33505;SDS011;19843;51.040;13.782;2023-04-29T03:07:37;28.20;;;22.35;;
33505;SDS011;19843;51.040;13.782;2023-04-29T03:10:05;26.92;;;21.98;;
33505;SDS011;19843;51.040;13.782;2023-04-29T03:12:34;31.20;;;22.95;;
33505;SDS011;19843;51.040;13.782;2023-04-29T03:15:01;32.85;;;22.95;;
33505;SDS011;19843;51.040;13.782;2023-04-29T03:17:30;27.20;;;21.50;;
33505;SDS011;19843;51.040;13.782;2023-04-29T03:19:58;27.50;;;21.45;;
33505;SDS011;19843;51.040;13.782;2023-04-29T03:22:26;23.27;;;19.92;;
33505;SDS011;19843;51.040;13.782;2023-04-29T03:24:54;27.55;;;19.90;;
33505;SDS011;19843;51.040;13.782;2023-04-29T03:27:21;24.05;;;19.42;;
33505;SDS011;19843;51.040;13.782;2023-04-29T03:29:49;26.00;;;19.45;;
33505;SDS011;19843;51.040;13.782;2023-04-29T03:32:16;28.38;;;20.33;;
33505;SDS011;19843;51.040;13.782;2023-04-29T03:34:44;22.65;;;18.55;;
33505;SDS011;19843;51.040;13.782;2023-04-29T03:37:11;24.52;;;18.73;;
33505;SDS011;19843;51.040;13.782;2023-04-29T03:39:40;23.73;;;18.88;;
33505;SDS011;19843;51.040;13.782;2023-04-29T03:42:08;23.92;;;18.02;;
33505;SDS011;19843;51.040;13.782;2023-04-29T03:44:35;20.00;;;16.42;;
33505;SDS011;19843;51.040;13.782;2023-04-29T03:47:02;24.10;;;18.05;;
33505;SDS011;19843;51.040;13.782;2023-04-29T03:49:30;25.33;;;17.80;;
33505;SDS011;19843;51.040;13.782;2023-04-29T03:51:57;25.63;;;19.40;;
33505;SDS011;19843;51.040;13.782;2023-04-29T03:54:25;20.70;;;16.38;;
33505;SDS011;19843;51.040;13.782;2023-04-29T03:56:54;22.83;;;17.33;;
33505;SDS011;19843;51.040;13.782;2023-04-29T03:59:21;20.63;;;16.38;;
33505;SDS011;19843;51.040;13.782;2023-04-29T04:01:49;19.58;;;15.95;;
33505;SDS011;19843;51.040;13.782;2023-04-29T04:04:17;20.65;;;15.38;;
33505;SDS011;19843;51.040;13.782;2023-04-29T04:06:45;21.00;;;16.25;;
33505;SDS011;19843;51.040;13.782;2023-04-29T04:09:16;21.08;;;15.77;;
33505;SDS011;19843;51.040;13.782;2023-04-29T04:11:44;19.98;;;15.27;;
33505;SDS011;19843;51.040;13.782;2023-04-29T04:14:13;20.83;;;15.80;;
33505;SDS011;19843;51.040;13.782;2023-04-29T04:16:40;19.70;;;15.32;;
33505;SDS011;19843;51.040;13.782;2023-04-29T04:19:08;22.20;;;16.30;;
33505;SDS011;19843;51.040;13.782;2023-04-29T04:21:36;22.58;;;15.60;;
33505;SDS011;19843;51.040;13.782;2023-04-29T04:24:03;21.17;;;15.15;;
33505;SDS011;19843;51.040;13.782;2023-04-29T04:26:31;18.02;;;15.05;;
33505;SDS011;19843;51.040;13.782;2023-04-29T04:28:59;19.92;;;15.68;;
33505;SDS011;19843;51.040;13.782;2023-04-29T04:31:27;21.73;;;16.50;;
33505;SDS011;19843;51.040;13.782;2023-04-29T04:33:56;20.73;;;15.15;;
33505;SDS011;19843;51.040;13.782;2023-04-29T04:36:24;19.00;;;15.73;;
33505;SDS011;19843;51.040;13.782;2023-04-29T04:38:52;17.13;;;13.98;;
33505;SDS011;19843;51.040;13.782;2023-04-29T04:41:19;16.60;;;14.05;;
33505;SDS011;19843;51.040;13.782;2023-04-29T04:43:47;18.00;;;13.15;;
33505;SDS011;19843;51.040;13.782;2023-04-29T04:46:14;16.60;;;14.25;;
33505;SDS011;19843;51.040;13.782;2023-04-29T04:48:44;16.05;;;13.45;;
33505;SDS011;19843;51.040;13.782;2023-04-29T04:51:11;15.57;;;13.75;;
33505;SDS011;19843;51.040;13.782;2023-04-29T04:53:40;15.35;;;13.40;;
33505;SDS011;19843;51.040;13.782;2023-04-29T04:56:07;14.18;;;12.25;;
33505;SDS011;19843;51.040;13.782;2023-04-29T04:58:35;14.98;;;12.88;;
33505;SDS011;19843;51.040;13.782;2023-04-29T05:01:02;16.33;;;12.40;;
33505;SDS011;19843;51.040;13.782;2023-04-29T05:03:30;14.70;;;11.90;;
33505;SDS011;19843;51.040;13.782;2023-04-29T05:05:59;13.23;;;11.82;;
33505;SDS011;19843;51.040;13.782;2023-04-29T05:08:26;14.52;;;11.00;;
33505;SDS011;19843;51.040;13.782;2023-04-29T05:10:54;14.02;;;11.75;;
33505;SDS011;19843;51.040;13.782;2023-04-29T05:13:22;13.73;;;11.35;;
33505;SDS011;19843;51.040;13.782;2023-04-29T05:15:51;12.82;;;11.48;;
33505;SDS011;19843;51.040;13.782;2023-04-29T05:18:18;15.38;;;11.45;;
33505;SDS011;19843;51.040;13.782;2023-04-29T05:20:46;12.68;;;11.35;;
33505;SDS011;19843;51.040;13.782;2023-04-29T05:23:15;13.20;;;11.32;;
33505;SDS011;19843;51.040;13.782;2023-04-29T05:25:42;14.60;;;11.55;;
33505;SDS011;19843;51.040;13.782;2023-04-29T05:28:09;13.75;;;11.50;;
33505;SDS011;19843;51.040;13.782;2023-04-29T05:30:37;11.80;;;10.60;;
33505;SDS011;19843;51.040;13.782;2023-04-29T05:33:04;13.00;;;11.45;;
33505;SDS011;19843;51.040;13.782;2023-04-29T05:35:32;12.48;;;10.57;;
33505;SDS011;19843;51.040;13.782;2023-04-29T05:37:59;13.73;;;11.15;;
33505;SDS011;19843;51.040;13.782;2023-04-29T05:40:28;13.10;;;10.80;;
33505;SDS011;19843;51.040;13.782;2023-04-29T05:42:55;12.02;;;10.75;;
33505;SDS011;19843;51.040;13.782;2023-04-29T05:45:23;12.93;;;10.98;;
33505;SDS011;19843;51.040;13.782;2023-04-29T05:47:50;13.73;;;11.05;;
33505;SDS011;19843;51.040;13.782;2023-04-29T05:50:18;12.68;;;11.32;;
33505;SDS011;19843;51.040;13.782;2023-04-29T05:52:45;15.40;;;13.07;;
33505;SDS011;19843;51.040;13.782;2023-04-29T05:55:13;19.10;;;15.48;;
33505;SDS011;19843;51.040;13.782;2023-04-29T05:57:42;13.90;;;12.48;;
33505;SDS011;19843;51.040;13.782;2023-04-29T06:00:09;13.63;;;12.05;;
33505;SDS011;19843;51.040;13.782;2023-04-29T06:02:38;14.13;;;11.23;;
33505;SDS011;19843;51.040;13.782;2023-04-29T06:05:23;14.20;;;10.48;;
33505;SDS011;19843;51.040;13.782;2023-04-29T06:07:51;12.63;;;11.30;;
33505;SDS011;19843;51.040;13.782;2023-04-29T06:10:19;11.10;;;9.95;;
33505;SDS011;19843;51.040;13.782;2023-04-29T06:12:47;11.20;;;9.98;;
33505;SDS011;19843;51.040;13.782;2023-04-29T06:15:16;11.93;;;10.80;;
33505;SDS011;19843;51.040;13.782;2023-04-29T06:17:44;11.05;;;9.88;;
33505;SDS011;19843;51.040;13.782;2023-04-29T06:20:11;11.20;;;10.05;;
33505;SDS011;19843;51.040;13.782;2023-04-29T06:22:39;12.38;;;11.10;;
33505;SDS011;19843;51.040;13.782;2023-04-29T06:25:07;11.88;;;10.52;;
33505;SDS011;19843;51.040;13.782;2023-04-29T06:27:35;11.68;;;10.48;;
33505;SDS011;19843;51.040;13.782;2023-04-29T06:30:04;13.63;;;11.43;;
33505;SDS011;19843;51.040;13.782;2023-04-29T06:32:32;12.23;;;11.00;;
33505;SDS011;19843;51.040;13.782;2023-04-29T06:35:00;13.50;;;11.57;;
33505;SDS011;19843;51.040;13.782;2023-04-29T06:37:27;12.38;;;11.07;;
33505;SDS011;19843;51.040;13.782;2023-04-29T06:39:55;12.98;;;11.57;;
33505;SDS011;19843;51.040;13.782;2023-04-29T06:42:22;11.90;;;10.70;;
33505;SDS011;19843;51.040;13.782;2023-04-29T06:44:49;11.57;;;10.32;;
33505;SDS011;19843;51.040;13.782;2023-04-29T06:47:18;11.73;;;10.52;;
33505;SDS011;19843;51.040;13.782;2023-04-29T06:49:46;14.60;;;11.85;;
33505;SDS011;19843;51.040;13.782;2023-04-29T06:52:14;13.45;;;12.05;;
33505;SDS011;19843;51.040;13.782;2023-04-29T06:54:41;14.48;;;12.65;;
33505;SDS011;19843;51.040;13.782;2023-04-29T06:57:09;14.00;;;12.63;;
33505;SDS011;19843;51.040;13.782;2023-04-29T06:59:36;14.52;;;13.02;;
33505;SDS011;19843;51.040;13.782;2023-04-29T07:02:03;14.63;;;13.13;;
33505;SDS011;19843;51.040;13.782;2023-04-29T07:04:32;14.93;;;12.93;;
33505;SDS011;19843;51.040;13.782;2023-04-29T07:07:02;14.35;;;12.85;;
33505;SDS011;19843;51.040;13.782;2023-04-29T07:09:30;14.70;;;13.20;;
33505;SDS011;19843;51.040;13.782;2023-04-29T07:11:57;15.68;;;14.02;;
33505;SDS011;19843;51.040;13.782;2023-04-29T07:14:25;15.50;;;13.90;;
33505;SDS011;19843;51.040;13.782;2023-04-29T07:16:53;14.57;;;13.18;;
33505;SDS011;19843;51.040;13.782;2023-04-29T07:19:20;15.52;;;13.23;;
33505;SDS011;19843;51.040;13.782;2023-04-29T07:21:49;15.77;;;13.90;;
33505;SDS011;19843;51.040;13.782;2023-04-29T07:24:16;15.48;;;13.77;;
33505;SDS011;19843;51.040;13.782;2023-04-29T07:26:44;16.88;;;15.15;;
33505;SDS011;19843;51.040;13.782;2023-04-29T07:29:11;15.25;;;13.65;;
33505;SDS011;19843;51.040;13.782;2023-04-29T07:31:39;16.67;;;14.88;;
33505;SDS011;19843;51.040;13.782;2023-04-29T07:34:06;16.30;;;14.60;;
33505;SDS011;19843;51.040;13.782;2023-04-29T07:36:34;17.50;;;15.65;;
33505;SDS011;19843;51.040;13.782;2023-04-29T07:39:03;18.70;;;14.95;;
33505;SDS011;19843;51.040;13.782;2023-04-29T07:41:31;18.63;;;15.55;;
33505;SDS011;19843;51.040;13.782;2023-04-29T07:43:58;17.10;;;15.43;;
33505;SDS011;19843;51.040;13.782;2023-04-29T07:46:25;15.27;;;13.73;;
33505;SDS011;19843;51.040;13.782;2023-04-29T07:48:53;16.20;;;14.55;;
33505;SDS011;19843;51.040;13.782;2023-04-29T07:51:20;16.50;;;14.77;;
33505;SDS011;19843;51.040;13.782;2023-04-29T07:53:48;16.67;;;14.98;;
33505;SDS011;19843;51.040;13.782;2023-04-29T07:56:17;16.40;;;14.40;;
33505;SDS011;19843;51.040;13.782;2023-04-29T07:58:45;15.52;;;13.82;;
33505;SDS011;19843;51.040;13.782;2023-04-29T08:01:12;14.98;;;13.43;;
33505;SDS011;19843;51.040;13.782;2023-04-29T08:03:40;15.60;;;14.10;;
33505;SDS011;19843;51.040;13.782;2023-04-29T08:06:08;14.68;;;13.27;;
33505;SDS011;19843;51.040;13.782;2023-04-29T08:08:36;14.15;;;12.75;;
33505;SDS011;19843;51.040;13.782;2023-04-29T08:11:03;13.30;;;11.93;;
33505;SDS011;19843;51.040;13.782;2023-04-29T08:13:33;13.20;;;11.80;;
33505;SDS011;19843;51.040;13.782;2023-04-29T08:16:00;14.05;;;11.68;;
33505;SDS011;19843;51.040;13.782;2023-04-29T08:18:28;12.98;;;11.77;;
33505;SDS011;19843;51.040;13.782;2023-04-29T08:20:55;11.18;;;10.18;;
33505;SDS011;19843;51.040;13.782;2023-04-29T08:23:22;12.60;;;11.25;;
33505;SDS011;19843;51.040;13.782;2023-04-29T08:25:50;12.07;;;10.88;;
33505;SDS011;19843;51.040;13.782;2023-04-29T08:28:18;10.75;;;9.75;;
33505;SDS011;19843;51.040;13.782;2023-04-29T08:30:47;9.55;;;8.65;;
33505;SDS011;19843;51.040;13.782;2023-04-29T08:33:14;9.23;;;8.43;;
33505;SDS011;19843;51.040;13.782;2023-04-29T08:35:42;9.68;;;8.77;;
33505;SDS011;19843;51.040;13.782;2023-04-29T08:38:09;10.10;;;9.02;;
33505;SDS011;19843;51.040;13.782;2023-04-29T08:40:40;9.13;;;8.32;;
33505;SDS011;19843;51.040;13.782;2023-04-29T08:43:08;9.80;;;8.80;;
33505;SDS011;19843;51.040;13.782;2023-04-29T08:45:36;9.02;;;8.23;;
33505;SDS011;19843;51.040;13.782;2023-04-29T08:48:06;9.70;;;8.80;;
33505;SDS011;19843;51.040;13.782;2023-04-29T08:50:35;9.32;;;8.52;;
33505;SDS011;19843;51.040;13.782;2023-04-29T08:53:07;9.77;;;8.88;;
33505;SDS011;19843;51.040;13.782;2023-04-29T08:55:39;9.75;;;8.75;;
33505;SDS011;19843;51.040;13.782;2023-04-29T08:58:09;10.40;;;9.40;;
33505;SDS011;19843;51.040;13.782;2023-04-29T09:00:41;10.60;;;8.85;;
33505;SDS011;19843;51.040;13.782;2023-04-29T09:03:16;9.45;;;8.55;;
33505;SDS011;19843;51.040;13.782;2023-04-29T09:05:51;9.63;;;8.70;;
33505;SDS011;19843;51.040;13.782;2023-04-29T09:08:21;9.65;;;8.60;;
33505;SDS011;19843;51.040;13.782;2023-04-29T09:10:50;9.15;;;8.25;;
33505;SDS011;19843;51.040;13.782;2023-04-29T09:13:23;9.25;;;8.35;;
33505;SDS011;19843;51.040;13.782;2023-04-29T09:15:51;10.80;;;9.80;;
33505;SDS011;19843;51.040;13.782;2023-04-29T09:21:13;9.88;;;8.98;;
33505;SDS011;19843;51.040;13.782;2023-04-29T09:23:43;10.15;;;9.25;;
33505;SDS011;19843;51.040;13.782;2023-04-29T09:26:13;10.00;;;8.98;;
33505;SDS011;19843;51.040;13.782;2023-04-29T09:28:41;11.52;;;10.43;;
33505;SDS011;19843;51.040;13.782;2023-04-29T09:31:32;13.45;;;12.05;;
33505;SDS011;19843;51.040;13.782;2023-04-29T09:34:59;11.75;;;10.48;;
33505;SDS011;19843;51.040;13.782;2023-04-29T09:39:01;12.23;;;10.93;;
33505;SDS011;19843;51.040;13.782;2023-04-29T09:42:28;12.18;;;10.98;;
33505;SDS011;19843;51.040;13.782;2023-04-29T09:45:54;11.05;;;9.95;;
33505;SDS011;19843;51.040;13.782;2023-04-29T09:49:25;10.27;;;9.27;;
33505;SDS011;19843;51.040;13.782;2023-04-29T09:52:52;12.07;;;10.77;;
33505;SDS011;19843;51.040;13.782;2023-04-29T09:56:20;12.38;;;10.18;;
33505;SDS011;19843;51.040;13.782;2023-04-29T09:59:50;9.95;;;8.95;;
33505;SDS011;19843;51.040;13.782;2023-04-29T10:03:17;10.32;;;9.02;;
33505;SDS011;19843;51.040;13.782;2023-04-29T10:06:49;9.80;;;8.80;;
33505;SDS011;19843;51.040;13.782;2023-04-29T10:10:16;10.38;;;9.38;;
33505;SDS011;19843;51.040;13.782;2023-04-29T10:13:43;9.80;;;8.63;;
33505;SDS011;19843;51.040;13.782;2023-04-29T10:17:15;9.50;;;8.60;;
33505;SDS011;19843;51.040;13.782;2023-04-29T10:20:47;8.75;;;7.85;;
33505;SDS011;19843;51.040;13.782;2023-04-29T10:24:17;9.90;;;8.90;;
33505;SDS011;19843;51.040;13.782;2023-04-29T10:27:45;9.80;;;8.80;;
33505;SDS011;19843;51.040;13.782;2023-04-29T10:31:13;10.18;;;9.07;;
33505;SDS011;19843;51.040;13.782;2023-04-29T10:34:40;10.23;;;9.15;;
33505;SDS011;19843;51.040;13.782;2023-04-29T10:38:15;10.98;;;9.85;;
33505;SDS011;19843;51.040;13.782;2023-04-29T10:41:50;12.52;;;9.70;;
33505;SDS011;19843;51.040;13.782;2023-04-29T10:45:24;11.93;;;10.73;;
33505;SDS011;19843;51.040;13.782;2023-04-29T10:48:55;12.70;;;11.43;;
33505;SDS011;19843;51.040;13.782;2023-04-29T10:52:27;12.77;;;11.48;;
33505;SDS011;19843;51.040;13.782;2023-04-29T10:55:55;12.48;;;11.18;;
33505;SDS011;19843;51.040;13.782;2023-04-29T10:59:43;12.65;;;11.45;;
33505;SDS011;19843;51.040;13.782;2023-04-29T11:03:09;13.07;;;11.77;;
33505;SDS011;19843;51.040;13.782;2023-04-29T11:06:57;13.35;;;11.70;;
33505;SDS011;19843;51.040;13.782;2023-04-29T11:10:35;11.18;;;10.07;;
33505;SDS011;19843;51.040;13.782;2023-04-29T11:14:20;12.02;;;10.05;;
33505;SDS011;19843;51.040;13.782;2023-04-29T11:17:46;11.05;;;9.95;;
33505;SDS011;19843;51.040;13.782;2023-04-29T11:21:32;11.50;;;10.30;;
33505;SDS011;19843;51.040;13.782;2023-04-29T11:24:59;11.45;;;10.05;;
33505;SDS011;19843;51.040;13.782;2023-04-29T11:28:26;10.60;;;9.52;;
33505;SDS011;19843;51.040;13.782;2023-04-29T11:31:57;10.00;;;9.00;;
33505;SDS011;19843;51.040;13.782;2023-04-29T11:35:25;10.32;;;9.43;;
33505;SDS011;19843;51.040;13.782;2023-04-29T11:38:52;13.57;;;9.02;;
33505;SDS011;19843;51.040;13.782;2023-04-29T11:42:24;9.30;;;8.40;;
33505;SDS011;19843;51.040;13.782;2023-04-29T11:45:52;9.57;;;8.77;;
33505;SDS011;19843;51.040;13.782;2023-04-29T11:49:19;9.32;;;8.52;;
33505;SDS011;19843;51.040;13.782;2023-04-29T11:52:46;8.90;;;8.10;;
33505;SDS011;19843;51.040;13.782;2023-04-29T11:56:12;7.85;;;7.00;;
33505;SDS011;19843;51.040;13.782;2023-04-29T11:59:40;7.88;;;7.07;;
33505;SDS011;19843;51.040;13.782;2023-04-29T12:03:08;7.88;;;6.55;;
33505;SDS011;19843;51.040;13.782;2023-04-29T12:06:38;6.32;;;5.72;;
33505;SDS011;19843;51.040;13.782;2023-04-29T12:10:06;6.13;;;5.63;;
33505;SDS011;19843;51.040;13.782;2023-04-29T12:13:33;6.40;;;5.80;;
33505;SDS011;19843;51.040;13.782;2023-04-29T12:16:59;6.10;;;5.60;;
33505;SDS011;19843;51.040;13.782;2023-04-29T12:20:29;6.32;;;5.80;;
33505;SDS011;19843;51.040;13.782;2023-04-29T12:23:57;6.50;;;5.95;;
33505;SDS011;19843;51.040;13.782;2023-04-29T12:27:23;7.50;;;6.90;;
33505;SDS011;19843;51.040;13.782;2023-04-29T12:30:50;8.05;;;7.18;;
33505;SDS011;19843;51.040;13.782;2023-04-29T12:34:16;9.35;;;8.55;;
33505;SDS011;19843;51.040;13.782;2023-04-29T12:37:47;9.05;;;8.18;;
33505;SDS011;19843;51.040;13.782;2023-04-29T12:41:13;9.95;;;9.05;;
33505;SDS011;19843;51.040;13.782;2023-04-29T12:44:43;10.23;;;9.23;;
33505;SDS011;19843;51.040;13.782;2023-04-29T12:48:10;9.65;;;8.73;;
33505;SDS011;19843;51.040;13.782;2023-04-29T12:51:37;10.63;;;9.48;;
33505;SDS011;19843;51.040;13.782;2023-04-29T12:55:04;10.15;;;9.15;;
33505;SDS011;19843;51.040;13.782;2023-04-29T12:58:31;9.55;;;8.75;;
33505;SDS011;19843;51.040;13.782;2023-04-29T13:01:57;8.32;;;7.53;;
33505;SDS011;19843;51.040;13.782;2023-04-29T13:05:23;8.88;;;8.10;;
33505;SDS011;19843;51.040;13.782;2023-04-29T13:08:49;8.82;;;8.02;;
33505;SDS011;19843;51.040;13.782;2023-04-29T13:12:16;8.85;;;8.05;;
33505;SDS011;19843;51.040;13.782;2023-04-29T13:15:42;8.98;;;8.18;;
33505;SDS011;19843;51.040;13.782;2023-04-29T13:19:08;9.20;;;8.27;;
33505;SDS011;19843;51.040;13.782;2023-04-29T13:22:36;9.70;;;8.70;;
33505;SDS011;19843;51.040;13.782;2023-04-29T13:26:02;10.18;;;9.20;;
33505;SDS011;19843;51.040;13.782;2023-04-29T13:29:32;10.45;;;9.45;;
33505;SDS011;19843;51.040;13.782;2023-04-29T13:32:58;12.57;;;11.27;;
33505;SDS011;19843;51.040;13.782;2023-04-29T13:35:39;13.38;;;12.07;;
33505;SDS011;19843;51.040;13.782;2023-04-29T13:38:07;15.52;;;13.90;;
33505;SDS011;19843;51.040;13.782;2023-04-29T13:40:34;16.38;;;14.60;;
33505;SDS011;19843;51.040;13.782;2023-04-29T13:43:09;15.85;;;13.80;;
33505;SDS011;19843;51.040;13.782;2023-04-29T13:45:45;16.73;;;14.93;;
33505;SDS011;19843;51.040;13.782;2023-04-29T13:48:13;17.40;;;14.80;;
33505;SDS011;19843;51.040;13.782;2023-04-29T13:51:01;21.25;;;16.08;;
33505;SDS011;19843;51.040;13.782;2023-04-29T13:53:31;20.10;;;15.68;;
33505;SDS011;19843;51.040;13.782;2023-04-29T13:56:18;20.58;;;16.25;;
33505;SDS011;19843;51.040;13.782;2023-04-29T13:58:49;19.25;;;15.77;;
33505;SDS011;19843;51.040;13.782;2023-04-29T14:01:37;19.92;;;15.55;;
33505;SDS011;19843;51.040;13.782;2023-04-29T14:04:08;21.80;;;17.40;;
33505;SDS011;19843;51.040;13.782;2023-04-29T14:06:36;22.88;;;16.95;;
33505;SDS011;19843;51.040;13.782;2023-04-29T14:09:04;18.17;;;15.93;;
33505;SDS011;19843;51.040;13.782;2023-04-29T14:11:32;22.25;;;16.65;;
33505;SDS011;19843;51.040;13.782;2023-04-29T14:14:02;24.50;;;18.73;;
33505;SDS011;19843;51.040;13.782;2023-04-29T14:16:35;20.75;;;16.35;;
33505;SDS011;19843;51.040;13.782;2023-04-29T14:19:04;22.67;;;16.83;;
33505;SDS011;19843;51.040;13.782;2023-04-29T14:21:32;20.08;;;15.82;;
33505;SDS011;19843;51.040;13.782;2023-04-29T14:23:59;17.60;;;14.88;;
33505;SDS011;19843;51.040;13.782;2023-04-29T14:26:31;20.00;;;15.68;;
33505;SDS011;19843;51.040;13.782;2023-04-29T14:28:59;21.52;;;16.40;;
33505;SDS011;19843;51.040;13.782;2023-04-29T14:31:27;23.58;;;17.95;;
33505;SDS011;19843;51.040;13.782;2023-04-29T14:33:56;21.25;;;16.23;;
33505;SDS011;19843;51.040;13.782;2023-04-29T14:36:25;19.90;;;16.27;;
33505;SDS011;19843;51.040;13.782;2023-04-29T14:39:17;17.30;;;15.48;;
33505;SDS011;19843;51.040;13.782;2023-04-29T14:41:44;17.10;;;14.93;;
33505;SDS011;19843;51.040;13.782;2023-04-29T14:44:13;22.02;;;16.55;;
33505;SDS011;19843;51.040;13.782;2023-04-29T14:46:41;19.23;;;17.13;;
33505;SDS011;19843;51.040;13.782;2023-04-29T14:49:09;21.48;;;15.98;;
33505;SDS011;19843;51.040;13.782;2023-04-29T14:51:37;19.33;;;15.60;;
33505;SDS011;19843;51.040;13.782;2023-04-29T14:54:05;19.60;;;15.52;;
33505;SDS011;19843;51.040;13.782;2023-04-29T14:56:32;18.88;;;16.65;;
33505;SDS011;19843;51.040;13.782;2023-04-29T14:59:01;19.67;;;15.85;;
33505;SDS011;19843;51.040;13.782;2023-04-29T15:01:29;20.45;;;16.58;;
33505;SDS011;19843;51.040;13.782;2023-04-29T15:03:57;20.77;;;16.20;;
33505;SDS011;19843;51.040;13.782;2023-04-29T15:06:25;17.42;;;14.95;;
33505;SDS011;19843;51.040;13.782;2023-04-29T15:08:54;18.95;;;15.50;;
33505;SDS011;19843;51.040;13.782;2023-04-29T15:11:22;17.05;;;15.25;;
33505;SDS011;19843;51.040;13.782;2023-04-29T15:13:51;17.55;;;15.50;;
33505;SDS011;19843;51.040;13.782;2023-04-29T15:16:18;17.02;;;14.98;;
33505;SDS011;19843;51.040;13.782;2023-04-29T15:18:46;17.35;;;15.30;;
33505;SDS011;19843;51.040;13.782;2023-04-29T15:21:14;18.90;;;16.27;;
33505;SDS011;19843;51.040;13.782;2023-04-29T15:23:41;17.70;;;15.32;;
33505;SDS011;19843;51.040;13.782;2023-04-29T15:26:11;16.83;;;14.98;;
33505;SDS011;19843;51.040;13.782;2023-04-29T15:28:38;18.80;;;16.25;;
33505;SDS011;19843;51.040;13.782;2023-04-29T15:31:05;18.33;;;16.08;;
33505;SDS011;19843;51.040;13.782;2023-04-29T15:33:33;16.33;;;14.57;;
33505;SDS011;19843;51.040;13.782;2023-04-29T15:36:03;18.08;;;16.20;;